^^
Station Historical Data
Daily Summary for February 14, 2018 Units:  Both    English   Metric
« Previous Day
Next Day »
Daily Weekly Monthly Yearly Custom
  High: Low: Average:
Temperature: 64.9 °F /  18.3 °C 30.2 °F /  -1 °C 47.4 °F /  8.6 °C
Dew Point: 28.5 °F /  -1.9 °C 17.5 °F /  -8.1 °C 22.1 °F /  -5.5 °C
Humidity: 68% 17% 40%
Wind Speed: 9.0mph /  14.5km/h - 1.6mph /  2.6km/h
Wind Gust: 25.0mph /  40.2km/h - -
Wind- - SW
Pressure: 30.24 in /  1023.9 hPa 29.83 in /  1010 hPa -
Precipitation: 0.00 in /  0 mm    
Historical Graphs
 
 
Tabular Data for February 14, 2018
Time Temperature Dew Point Pressure Wind Wind Speed Wind Gust Humidity Rainfall Rate (Hourly) solar Conditions
00:00 32.5 °F /  0.3 °C 21.3 °F /  -5.9 °C 30.24in /  1023.9hPa Calm   1.0mph /  1.6km/h 63% 0.00in /  0mm 0.0 W/m2 CLR
00:10 32.9 °F /  0.5 °C 21.3 °F /  -5.9 °C 30.24in /  1023.9hPa Calm     62% 0.00in /  0mm 0.0 W/m2 CLR
00:15 32.4 °F /  0.2 °C 21.2 °F /  -6 °C 30.23in /  1023.6hPa ESE 1.0mph /  1.6km/h 3.0mph /  4.8km/h 63% 0.00in /  0mm 0.0 W/m2 CLR
00:20 32.1 °F /  0.1 °C 21.3 °F /  -5.9 °C 30.23in /  1023.6hPa Calm   2.0mph /  3.2km/h 64% 0.00in /  0mm 0.0 W/m2 CLR
00:30 34.5 °F /  1.4 °C 22.4 °F /  -5.3 °C 30.22in /  1023.2hPa NNE 2.0mph /  3.2km/h 3.0mph /  4.8km/h 61% 0.00in /  0mm 0.0 W/m2 CLR
00:35 37.7 °F /  3.2 °C 22.1 °F /  -5.5 °C 30.22in /  1023.2hPa WNW 1.0mph /  1.6km/h 4.0mph /  6.4km/h 53% 0.00in /  0mm 0.0 W/m2 CLR
00:40 39.4 °F /  4.1 °C 22.2 °F /  -5.4 °C 30.22in /  1023.2hPa West 1.0mph /  1.6km/h 3.0mph /  4.8km/h 50% 0.00in /  0mm 0.0 W/m2 CLR
00:45 40.4 °F /  4.7 °C 22.2 °F /  -5.4 °C 30.22in /  1023.2hPa Calm   2.0mph /  3.2km/h 48% 0.00in /  0mm 0.0 W/m2 CLR
00:50 40.7 °F /  4.8 °C 22.0 °F /  -5.6 °C 30.22in /  1023.2hPa WSW 1.0mph /  1.6km/h 2.0mph /  3.2km/h 47% 0.00in /  0mm 0.0 W/m2 CLR
00:55 40.7 °F /  4.8 °C 22.0 °F /  -5.6 °C 30.22in /  1023.2hPa Calm   2.0mph /  3.2km/h 47% 0.00in /  0mm 0.0 W/m2 CLR
01:00 42.1 °F /  5.6 °C 23.3 °F /  -4.8 °C 30.21in /  1022.9hPa WSW 1.0mph /  1.6km/h 4.0mph /  6.4km/h 47% 0.00in /  0mm 0.0 W/m2 CLR
01:10 43.1 °F /  6.2 °C 23.7 °F /  -4.6 °C 30.20in /  1022.6hPa WSW 1.0mph /  1.6km/h 8.0mph /  12.9km/h 46% 0.00in /  0mm 0.0 W/m2 CLR
01:15 44.1 °F /  6.7 °C 24.0 °F /  -4.4 °C 30.19in /  1022.2hPa West 5.0mph /  8km/h 9.0mph /  14.5km/h 45% 0.00in /  0mm 0.0 W/m2 CLR
01:20 44.9 °F /  7.2 °C 24.3 °F /  -4.3 °C 30.19in /  1022.2hPa West 3.0mph /  4.8km/h 8.0mph /  12.9km/h 44% 0.00in /  0mm 0.0 W/m2 CLR
01:25 45.3 °F /  7.4 °C 24.1 °F /  -4.4 °C 30.19in /  1022.2hPa WSW 2.0mph /  3.2km/h 10.0mph /  16.1km/h 43% 0.00in /  0mm 0.0 W/m2 CLR
01:30 45.6 °F /  7.6 °C 23.2 °F /  -4.9 °C 30.18in /  1021.9hPa WSW 3.0mph /  4.8km/h 9.0mph /  14.5km/h 41% 0.00in /  0mm 0.0 W/m2 CLR
01:35 45.7 °F /  7.6 °C 23.4 °F /  -4.8 °C 30.18in /  1021.9hPa WSW 2.0mph /  3.2km/h 9.0mph /  14.5km/h 41% 0.00in /  0mm 0.0 W/m2 CLR
01:45 45.8 °F /  7.7 °C 23.4 °F /  -4.8 °C 30.17in /  1021.6hPa WSW 1.0mph /  1.6km/h 6.0mph /  9.7km/h 41% 0.00in /  0mm 0.0 W/m2 CLR
01:50 45.9 °F /  7.7 °C 22.9 °F /  -5.1 °C 30.18in /  1021.9hPa WNW 3.0mph /  4.8km/h 12.0mph /  19.3km/h 40% 0.00in /  0mm 0.0 W/m2 CLR
01:55 46.0 °F /  7.8 °C 23.0 °F /  -5 °C 30.17in /  1021.6hPa WNW 2.0mph /  3.2km/h 6.0mph /  9.7km/h 40% 0.00in /  0mm 0.0 W/m2 CLR
02:00 46.0 °F /  7.8 °C 23.0 °F /  -5 °C 30.17in /  1021.6hPa WSW 2.0mph /  3.2km/h 5.0mph /  8km/h 40% 0.00in /  0mm 0.0 W/m2 CLR
02:10 44.3 °F /  6.8 °C 22.1 °F /  -5.5 °C 30.17in /  1021.6hPa WSW 2.0mph /  3.2km/h 9.0mph /  14.5km/h 41% 0.00in /  0mm 0.0 W/m2 CLR
02:20 42.4 °F /  5.8 °C 21.4 °F /  -5.9 °C 30.17in /  1021.6hPa Calm   3.0mph /  4.8km/h 43% 0.00in /  0mm 0.0 W/m2 CLR
02:25 41.0 °F /  5 °C 21.3 °F /  -5.9 °C 30.16in /  1021.2hPa Calm   2.0mph /  3.2km/h 45% 0.00in /  0mm 0.0 W/m2 CLR
02:30 39.9 °F /  4.4 °C 21.3 °F /  -5.9 °C 30.15in /  1020.9hPa Calm   2.0mph /  3.2km/h 47% 0.00in /  0mm 0.0 W/m2 CLR
02:35 38.8 °F /  3.8 °C 21.2 °F /  -6 °C 30.15in /  1020.9hPa Calm   1.0mph /  1.6km/h 49% 0.00in /  0mm 0.0 W/m2 CLR
02:45 38.6 °F /  3.7 °C 20.5 °F /  -6.4 °C 30.15in /  1020.9hPa Calm     48% 0.00in /  0mm 0.0 W/m2 CLR
02:50 38.1 °F /  3.4 °C 20.6 °F /  -6.3 °C 30.15in /  1020.9hPa NW 1.0mph /  1.6km/h 2.0mph /  3.2km/h 49% 0.00in /  0mm 0.0 W/m2 CLR
02:55 37.4 °F /  3 °C 20.9 °F /  -6.2 °C 30.15in /  1020.9hPa Calm   2.0mph /  3.2km/h 51% 0.00in /  0mm 0.0 W/m2 CLR
03:00 37.2 °F /  2.9 °C 20.7 °F /  -6.3 °C 30.14in /  1020.5hPa Calm   1.0mph /  1.6km/h 51% 0.00in /  0mm 0.0 W/m2 CLR
03:10 35.5 °F /  1.9 °C 20.5 °F /  -6.4 °C 30.14in /  1020.5hPa NW 1.0mph /  1.6km/h 2.0mph /  3.2km/h 54% 0.00in /  0mm 0.0 W/m2 CLR
03:20 37.2 °F /  2.9 °C 20.7 °F /  -6.3 °C 30.13in /  1020.2hPa Calm   4.0mph /  6.4km/h 51% 0.00in /  0mm 0.0 W/m2 CLR
03:24 39.6 °F /  4.2 °C 20.5 °F /  -6.4 °C 30.13in /  1020.2hPa Calm   3.0mph /  4.8km/h 46% 0.00in /  0mm 0.0 W/m2 CLR
03:30 40.2 °F /  4.6 °C 21.1 °F /  -6.1 °C 30.12in /  1019.9hPa Calm   2.0mph /  3.2km/h 46% 0.00in /  0mm 0.0 W/m2 CLR
03:34 39.7 °F /  4.3 °C 21.1 °F /  -6.1 °C 30.12in /  1019.9hPa SE 1.0mph /  1.6km/h 3.0mph /  4.8km/h 47% 0.00in /  0mm 0.0 W/m2 CLR
03:40 39.8 °F /  4.3 °C 20.6 °F /  -6.3 °C 30.12in /  1019.9hPa Calm   2.0mph /  3.2km/h 46% 0.00in /  0mm 0.0 W/m2 CLR
03:45 38.6 °F /  3.7 °C 20.6 °F /  -6.3 °C 30.12in /  1019.9hPa Calm   2.0mph /  3.2km/h 48% 0.00in /  0mm 0.0 W/m2 CLR
03:50 38.0 °F /  3.3 °C 20.5 °F /  -6.4 °C 30.12in /  1019.9hPa Calm   1.0mph /  1.6km/h 49% 0.00in /  0mm 0.0 W/m2 CLR
03:55 36.9 °F /  2.7 °C 19.9 °F /  -6.7 °C 30.12in /  1019.9hPa Calm     50% 0.00in /  0mm 0.0 W/m2 CLR
04:00 35.7 °F /  2.1 °C 20.2 °F /  -6.6 °C 30.12in /  1019.9hPa Calm   1.0mph /  1.6km/h 53% 0.00in /  0mm 0.0 W/m2 CLR
04:10 34.7 °F /  1.5 °C 20.1 °F /  -6.6 °C 30.12in /  1019.9hPa South 1.0mph /  1.6km/h 2.0mph /  3.2km/h 55% 0.00in /  0mm 0.0 W/m2 CLR
04:15 35.5 °F /  1.9 °C 20.4 °F /  -6.4 °C 30.12in /  1019.9hPa Calm   2.0mph /  3.2km/h 54% 0.00in /  0mm 0.0 W/m2 CLR
04:20 35.8 °F /  2.1 °C 20.3 °F /  -6.5 °C 30.12in /  1019.9hPa South 1.0mph /  1.6km/h 4.0mph /  6.4km/h 53% 0.00in /  0mm 0.0 W/m2 CLR
04:25 35.0 °F /  1.7 °C 20.5 °F /  -6.4 °C 30.12in /  1019.9hPa Calm   1.0mph /  1.6km/h 55% 0.00in /  0mm 0.0 W/m2 CLR
04:30 34.6 °F /  1.4 °C 20.5 °F /  -6.4 °C 30.12in /  1019.9hPa Calm   1.0mph /  1.6km/h 56% 0.00in /  0mm 0.0 W/m2 CLR
04:35 34.2 °F /  1.2 °C 20.5 °F /  -6.4 °C 30.12in /  1019.9hPa Calm   1.0mph /  1.6km/h 57% 0.00in /  0mm 0.0 W/m2 CLR
04:40 33.9 °F /  1.1 °C 20.7 °F /  -6.3 °C 30.12in /  1019.9hPa Calm   1.0mph /  1.6km/h 58% 0.00in /  0mm 0.0 W/m2 CLR
04:45 33.4 °F /  0.8 °C 20.6 °F /  -6.3 °C 30.12in /  1019.9hPa Calm   1.0mph /  1.6km/h 59% 0.00in /  0mm 0.0 W/m2 CLR
04:50 32.9 °F /  0.5 °C 20.5 °F /  -6.4 °C 30.11in /  1019.5hPa Calm   2.0mph /  3.2km/h 60% 0.00in /  0mm 0.0 W/m2 CLR
04:59 32.0 °F /  0 °C 20.5 °F /  -6.4 °C 30.11in /  1019.5hPa Calm   1.0mph /  1.6km/h 62% 0.00in /  0mm 0.0 W/m2 CLR
05:10 31.2 °F /  -0.4 °C 20.1 °F /  -6.6 °C 30.11in /  1019.5hPa Calm   1.0mph /  1.6km/h 63% 0.00in /  0mm 0.0 W/m2 CLR
05:20 32.1 °F /  0.1 °C 20.5 °F /  -6.4 °C 30.11in /  1019.5hPa Calm     62% 0.00in /  0mm 0.0 W/m2 CLR
05:25 32.0 °F /  0 °C 20.4 °F /  -6.4 °C 30.10in /  1019.2hPa Calm     62% 0.00in /  0mm 0.0 W/m2 CLR
05:30 31.7 °F /  -0.2 °C 20.2 °F /  -6.6 °C 30.10in /  1019.2hPa Calm     62% 0.00in /  0mm 0.0 W/m2 CLR
05:34 32.1 °F /  0.1 °C 20.5 °F /  -6.4 °C 30.10in /  1019.2hPa Calm   1.0mph /  1.6km/h 62% 0.00in /  0mm 0.0 W/m2 CLR
05:40 31.8 °F /  -0.1 °C 20.3 °F /  -6.5 °C 30.10in /  1019.2hPa Calm   1.0mph /  1.6km/h 62% 0.00in /  0mm 0.0 W/m2 CLR
05:45 31.6 °F /  -0.2 °C 20.1 °F /  -6.6 °C 30.10in /  1019.2hPa Calm   1.0mph /  1.6km/h 62% 0.00in /  0mm 0.0 W/m2 CLR
05:50 31.9 °F /  -0.1 °C 20.3 °F /  -6.5 °C 30.10in /  1019.2hPa Calm   1.0mph /  1.6km/h 62% 0.00in /  0mm 0.0 W/m2 CLR
05:55 32.4 °F /  0.2 °C 20.4 °F /  -6.4 °C 30.10in /  1019.2hPa Calm   1.0mph /  1.6km/h 61% 0.00in /  0mm 0.0 W/m2 FEW
06:00 32.4 °F /  0.2 °C 20.5 °F /  -6.4 °C 30.09in /  1018.8hPa Calm   1.0mph /  1.6km/h 61% 0.00in /  0mm 0.0 W/m2 FEW
06:10 31.3 °F /  -0.4 °C 20.1 °F /  -6.6 °C 30.09in /  1018.8hPa Calm   1.0mph /  1.6km/h 63% 0.00in /  0mm 0.0 W/m2 CLR
06:15 31.1 °F /  -0.5 °C 20.0 °F /  -6.7 °C 30.09in /  1018.8hPa Calm   1.0mph /  1.6km/h 63% 0.00in /  0mm 0.0 W/m2 CLR
06:20 31.0 °F /  -0.6 °C 20.2 °F /  -6.6 °C 30.08in /  1018.5hPa Calm   1.0mph /  1.6km/h 64% 0.00in /  0mm 0.0 W/m2 CLR
06:25 31.0 °F /  -0.6 °C 20.6 °F /  -6.3 °C 30.08in /  1018.5hPa Calm   2.0mph /  3.2km/h 65% 0.00in /  0mm 0.0 W/m2 CLR
06:30 30.8 °F /  -0.7 °C 20.4 °F /  -6.4 °C 30.08in /  1018.5hPa Calm   1.0mph /  1.6km/h 65% 0.00in /  0mm 0.0 W/m2 CLR
06:40 30.7 °F /  -0.7 °C 20.7 °F /  -6.3 °C 30.08in /  1018.5hPa Calm   1.0mph /  1.6km/h 66% 0.00in /  0mm 0.0 W/m2 CLR
06:45 31.1 °F /  -0.5 °C 20.7 °F /  -6.3 °C 30.07in /  1018.2hPa Calm   2.0mph /  3.2km/h 65% 0.00in /  0mm 0.0 W/m2 CLR
06:50 30.8 °F /  -0.7 °C 20.4 °F /  -6.4 °C 30.07in /  1018.2hPa Calm   2.0mph /  3.2km/h 65% 0.00in /  0mm 0.0 W/m2 CLR
06:55 30.4 °F /  -0.9 °C 20.3 °F /  -6.5 °C 30.07in /  1018.2hPa Calm   1.0mph /  1.6km/h 66% 0.00in /  0mm 0.0 W/m2 CLR
07:00 30.2 °F /  -1 °C 20.6 °F /  -6.3 °C 30.07in /  1018.2hPa Calm   1.0mph /  1.6km/h 67% 0.00in /  0mm 0.0 W/m2 CLR
07:10 30.3 °F /  -0.9 °C 21.0 °F /  -6.1 °C 30.06in /  1017.8hPa ESE 1.0mph /  1.6km/h 5.0mph /  8km/h 68% 0.00in /  0mm 5.0 W/m2 FEW
07:15 31.1 °F /  -0.5 °C 21.1 °F /  -6.1 °C 30.07in /  1018.2hPa Calm   2.0mph /  3.2km/h 66% 0.00in /  0mm 5.0 W/m2 FEW
07:20 31.6 °F /  -0.2 °C 21.2 °F /  -6 °C 30.07in /  1018.2hPa ENE 1.0mph /  1.6km/h 3.0mph /  4.8km/h 65% 0.00in /  0mm 7.0 W/m2 FEW
07:25 32.6 °F /  0.3 °C 21.4 °F /  -5.9 °C 30.07in /  1018.2hPa Calm   2.0mph /  3.2km/h 63% 0.00in /  0mm 7.0 W/m2 FEW
07:30 32.3 °F /  0.2 °C 21.1 °F /  -6.1 °C 30.07in /  1018.2hPa Calm   1.0mph /  1.6km/h 63% 0.00in /  0mm 9.0 W/m2 FEW
07:35 31.7 °F /  -0.2 °C 20.9 °F /  -6.2 °C 30.07in /  1018.2hPa Calm   1.0mph /  1.6km/h 64% 0.00in /  0mm 11.0 W/m2 FEW
07:40 31.9 °F /  -0.1 °C 21.1 °F /  -6.1 °C 30.06in /  1017.8hPa Calm   1.0mph /  1.6km/h 64% 0.00in /  0mm 11.0 W/m2 FEW
07:45 32.0 °F /  0 °C 21.2 °F /  -6 °C 30.07in /  1018.2hPa North 1.0mph /  1.6km/h 3.0mph /  4.8km/h 64% 0.00in /  0mm 11.0 W/m2 FEW
07:50 32.5 °F /  0.3 °C 21.7 °F /  -5.7 °C 30.07in /  1018.2hPa North 1.0mph /  1.6km/h 2.0mph /  3.2km/h 64% 0.00in /  0mm 12.0 W/m2 FEW
07:55 33.0 °F /  0.6 °C 21.8 °F /  -5.7 °C 30.06in /  1017.8hPa NNW 2.0mph /  3.2km/h 4.0mph /  6.4km/h 63% 0.00in /  0mm 16.0 W/m2 BKN
07:59 34.6 °F /  1.4 °C 22.5 °F /  -5.3 °C 30.06in /  1017.8hPa Calm   3.0mph /  4.8km/h 61% 0.00in /  0mm 16.0 W/m2 BKN
08:10 38.3 °F /  3.5 °C 22.2 °F /  -5.4 °C 30.06in /  1017.8hPa Calm   4.0mph /  6.4km/h 52% 0.00in /  0mm 28.0 W/m2 BKN
08:15 38.9 °F /  3.8 °C 22.8 °F /  -5.1 °C 30.06in /  1017.8hPa Calm   6.0mph /  9.7km/h 52% 0.00in /  0mm 46.0 W/m2 BKN
08:20 39.5 °F /  4.2 °C 22.4 °F /  -5.3 °C 30.06in /  1017.8hPa SSE 1.0mph /  1.6km/h 2.0mph /  3.2km/h 50% 0.00in /  0mm 60.0 W/m2 BKN
08:25 39.3 °F /  4.1 °C 22.7 °F /  -5.2 °C 30.06in /  1017.8hPa Calm   2.0mph /  3.2km/h 51% 0.00in /  0mm 42.0 W/m2 BKN
08:30 40.1 °F /  4.5 °C 22.4 °F /  -5.3 °C 30.05in /  1017.5hPa SSE 2.0mph /  3.2km/h 3.0mph /  4.8km/h 49% 0.00in /  0mm 107.0 W/m2 BKN
08:35 42.5 °F /  5.8 °C 23.7 °F /  -4.6 °C 30.05in /  1017.5hPa Calm   2.0mph /  3.2km/h 47% 0.00in /  0mm 153.0 W/m2 BKN
08:40 43.4 °F /  6.3 °C 23.9 °F /  -4.5 °C 30.05in /  1017.5hPa Calm   4.0mph /  6.4km/h 46% 0.00in /  0mm 86.0 W/m2 BKN
08:45 43.8 °F /  6.6 °C 24.8 °F /  -4 °C 30.04in /  1017.2hPa ENE 2.0mph /  3.2km/h 4.0mph /  6.4km/h 47% 0.00in /  0mm 134.0 W/m2 BKN
08:50 45.3 °F /  7.4 °C 24.6 °F /  -4.1 °C 30.04in /  1017.2hPa ENE 1.0mph /  1.6km/h 3.0mph /  4.8km/h 44% 0.00in /  0mm 63.0 W/m2 BKN
08:55 47.4 °F /  8.6 °C 24.8 °F /  -4 °C 30.04in /  1017.2hPa ENE 1.0mph /  1.6km/h 3.0mph /  4.8km/h 41% 0.00in /  0mm 98.0 W/m2 BKN
09:00 48.5 °F /  9.2 °C 25.8 °F /  -3.4 °C 30.03in /  1016.8hPa NE 2.0mph /  3.2km/h 5.0mph /  8km/h 41% 0.00in /  0mm 214.0 W/m2 BKN
09:10 50.4 °F /  10.2 °C 27.0 °F /  -2.8 °C 30.03in /  1016.8hPa NE 2.0mph /  3.2km/h 5.0mph /  8km/h 40% 0.00in /  0mm 139.0 W/m2 BKN
09:15 51.3 °F /  10.7 °C 26.5 °F /  -3.1 °C 30.02in /  1016.5hPa ENE 1.0mph /  1.6km/h 3.0mph /  4.8km/h 38% 0.00in /  0mm 174.0 W/m2 BKN
09:20 52.1 °F /  11.2 °C 28.5 °F /  -1.9 °C 30.02in /  1016.5hPa ENE 2.0mph /  3.2km/h 4.0mph /  6.4km/h 40% 0.00in /  0mm 139.0 W/m2 BKN
09:24 52.8 °F /  11.6 °C 27.3 °F /  -2.6 °C 30.02in /  1016.5hPa ENE 1.0mph /  1.6km/h 4.0mph /  6.4km/h 37% 0.00in /  0mm 176.0 W/m2 BKN
09:30 53.7 °F /  12.1 °C 28.0 °F /  -2.2 °C 30.02in /  1016.5hPa East 1.0mph /  1.6km/h 2.0mph /  3.2km/h 37% 0.00in /  0mm 135.0 W/m2 BKN
09:35 53.6 °F /  12 °C 27.9 °F /  -2.3 °C 30.02in /  1016.5hPa ENE 2.0mph /  3.2km/h 5.0mph /  8km/h 37% 0.00in /  0mm 216.0 W/m2 BKN
09:40 53.6 °F /  12 °C 27.3 °F /  -2.6 °C 30.02in /  1016.5hPa NE 3.0mph /  4.8km/h 5.0mph /  8km/h 36% 0.00in /  0mm 264.0 W/m2 BKN
09:45 54.0 °F /  12.2 °C 27.7 °F /  -2.4 °C 30.02in /  1016.5hPa ENE 1.0mph /  1.6km/h 5.0mph /  8km/h 36% 0.00in /  0mm 237.0 W/m2 BKN
09:50 55.0 °F /  12.8 °C 27.8 °F /  -2.3 °C 30.01in /  1016.1hPa ENE 2.0mph /  3.2km/h 4.0mph /  6.4km/h 35% 0.00in /  0mm 301.0 W/m2 BKN
09:55 55.6 °F /  13.1 °C 26.2 °F /  -3.2 °C 30.01in /  1016.1hPa ESE 1.0mph /  1.6km/h 5.0mph /  8km/h 32% 0.00in /  0mm 218.0 W/m2 BKN
10:00 55.7 °F /  13.2 °C 27.8 °F /  -2.3 °C 30.01in /  1016.1hPa ESE 1.0mph /  1.6km/h 3.0mph /  4.8km/h 34% 0.00in /  0mm 230.0 W/m2 BKN
10:10 55.9 °F /  13.3 °C 27.9 °F /  -2.3 °C 30.00in /  1015.8hPa NE 3.0mph /  4.8km/h 6.0mph /  9.7km/h 34% 0.00in /  0mm 308.0 W/m2 BKN
10:15 56.2 °F /  13.4 °C 27.4 °F /  -2.6 °C 30.00in /  1015.8hPa NE 3.0mph /  4.8km/h 6.0mph /  9.7km/h 33% 0.00in /  0mm 151.0 W/m2 BKN
10:20 55.7 °F /  13.2 °C 27.0 °F /  -2.8 °C 30.00in /  1015.8hPa NE 5.0mph /  8km/h 8.0mph /  12.9km/h 33% 0.00in /  0mm 156.0 W/m2 BKN
10:25 56.0 °F /  13.3 °C 27.3 °F /  -2.6 °C 30.00in /  1015.8hPa NE 3.0mph /  4.8km/h 6.0mph /  9.7km/h 33% 0.00in /  0mm 211.0 W/m2 BKN
10:30 56.2 °F /  13.4 °C 27.5 °F /  -2.5 °C 29.99in /  1015.5hPa NE 3.0mph /  4.8km/h 7.0mph /  11.3km/h 33% 0.00in /  0mm 218.0 W/m2 BKN
10:35 56.6 °F /  13.7 °C 27.8 °F /  -2.3 °C 29.99in /  1015.5hPa NE 2.0mph /  3.2km/h 5.0mph /  8km/h 33% 0.00in /  0mm 195.0 W/m2 BKN
10:40 56.8 °F /  13.8 °C 27.2 °F /  -2.7 °C 29.99in /  1015.5hPa ENE 1.0mph /  1.6km/h 3.0mph /  4.8km/h 32% 0.00in /  0mm 209.0 W/m2 BKN
10:45 56.8 °F /  13.8 °C 26.5 °F /  -3.1 °C 29.98in /  1015.1hPa East 1.0mph /  1.6km/h 4.0mph /  6.4km/h 31% 0.00in /  0mm 165.0 W/m2 BKN
10:50 56.8 °F /  13.8 °C 27.2 °F /  -2.7 °C 29.99in /  1015.5hPa Calm   3.0mph /  4.8km/h 32% 0.00in /  0mm 171.0 W/m2 BKN
11:00 57.6 °F /  14.2 °C 25.5 °F /  -3.6 °C 29.98in /  1015.1hPa SE 1.0mph /  1.6km/h 4.0mph /  6.4km/h 29% 0.00in /  0mm 234.0 W/m2 BKN
11:10 58.7 °F /  14.8 °C 24.7 °F /  -4.1 °C 29.98in /  1015.1hPa SSW 2.0mph /  3.2km/h 9.0mph /  14.5km/h 27% 0.00in /  0mm 373.0 W/m2 BKN
11:15 60.0 °F /  15.6 °C 24.0 °F /  -4.4 °C 29.97in /  1014.8hPa SSW 2.0mph /  3.2km/h 10.0mph /  16.1km/h 25% 0.00in /  0mm 392.0 W/m2 BKN
11:20 60.9 °F /  16.1 °C 23.8 °F /  -4.6 °C 29.97in /  1014.8hPa SSW 2.0mph /  3.2km/h 8.0mph /  12.9km/h 24% 0.00in /  0mm 541.0 W/m2 BKN
11:25 62.0 °F /  16.7 °C 23.7 °F /  -4.6 °C 29.96in /  1014.4hPa SW 6.0mph /  9.7km/h 10.0mph /  16.1km/h 23% 0.00in /  0mm 434.0 W/m2 BKN
11:30 62.4 °F /  16.9 °C 25.1 °F /  -3.8 °C 29.96in /  1014.4hPa SSW 1.0mph /  1.6km/h 9.0mph /  14.5km/h 24% 0.00in /  0mm 462.0 W/m2 BKN
11:35 62.4 °F /  16.9 °C 24.0 °F /  -4.4 °C 29.96in /  1014.4hPa SW 5.0mph /  8km/h 12.0mph /  19.3km/h 23% 0.00in /  0mm 223.0 W/m2 BKN
11:40 62.5 °F /  16.9 °C 24.2 °F /  -4.3 °C 29.95in /  1014.1hPa SW 6.0mph /  9.7km/h 13.0mph /  20.9km/h 23% 0.00in /  0mm 308.0 W/m2 BKN
11:45 62.8 °F /  17.1 °C 23.3 °F /  -4.8 °C 29.95in /  1014.1hPa SSW 6.0mph /  9.7km/h 12.0mph /  19.3km/h 22% 0.00in /  0mm 501.0 W/m2 BKN
11:50 62.8 °F /  17.1 °C 24.4 °F /  -4.2 °C 29.95in /  1014.1hPa WSW 3.0mph /  4.8km/h 14.0mph /  22.5km/h 23% 0.00in /  0mm 313.0 W/m2 BKN
11:54 62.8 °F /  17.1 °C 23.4 °F /  -4.8 °C 29.95in /  1014.1hPa West 6.0mph /  9.7km/h 13.0mph /  20.9km/h 22% 0.00in /  0mm 527.0 W/m2 BKN
12:00 62.8 °F /  17.1 °C 23.3 °F /  -4.8 °C 29.95in /  1014.1hPa WSW 6.0mph /  9.7km/h 13.0mph /  20.9km/h 22% 0.00in /  0mm 366.0 W/m2 BKN
12:09 62.9 °F /  17.2 °C 23.4 °F /  -4.8 °C 29.94in /  1013.8hPa WSW 5.0mph /  8km/h 12.0mph /  19.3km/h 22% 0.00in /  0mm 174.0 W/m2 BKN
12:15 63.0 °F /  17.2 °C 22.4 °F /  -5.3 °C 29.93in /  1013.4hPa WSW 5.0mph /  8km/h 13.0mph /  20.9km/h 21% 0.00in /  0mm 142.0 W/m2 BKN
12:20 63.1 °F /  17.3 °C 22.5 °F /  -5.3 °C 29.93in /  1013.4hPa West 6.0mph /  9.7km/h 12.0mph /  19.3km/h 21% 0.00in /  0mm 207.0 W/m2 BKN
12:30 62.9 °F /  17.2 °C 23.4 °F /  -4.8 °C 29.92in /  1013.1hPa SSW 8.0mph /  12.9km/h 17.0mph /  27.4km/h 22% 0.00in /  0mm 450.0 W/m2 BKN
12:35 63.0 °F /  17.2 °C 23.5 °F /  -4.7 °C 29.92in /  1013.1hPa SW 5.0mph /  8km/h 17.0mph /  27.4km/h 22% 0.00in /  0mm 406.0 W/m2 BKN
12:40 63.5 °F /  17.5 °C 22.8 °F /  -5.1 °C 29.92in /  1013.1hPa SW 6.0mph /  9.7km/h 18.0mph /  29km/h 21% 0.00in /  0mm 503.0 W/m2 BKN
12:45 63.6 °F /  17.6 °C 22.9 °F /  -5.1 °C 29.91in /  1012.8hPa SW 6.0mph /  9.7km/h 20.0mph /  32.2km/h 21% 0.00in /  0mm 578.0 W/m2 BKN
12:49 63.8 °F /  17.7 °C 23.1 °F /  -4.9 °C 29.91in /  1012.8hPa WSW 9.0mph /  14.5km/h 25.0mph /  40.2km/h 21% 0.00in /  0mm 599.0 W/m2 BKN
12:54 63.9 °F /  17.7 °C 23.2 °F /  -4.9 °C 29.91in /  1012.8hPa SW 6.0mph /  9.7km/h 18.0mph /  29km/h 21% 0.00in /  0mm 585.0 W/m2 BKN
13:00 64.3 °F /  17.9 °C 23.4 °F /  -4.8 °C 29.90in /  1012.4hPa WSW 6.0mph /  9.7km/h 20.0mph /  32.2km/h 21% 0.00in /  0mm 679.0 W/m2 BKN
13:10 64.9 °F /  18.3 °C 22.8 °F /  -5.1 °C 29.90in /  1012.4hPa SW 7.0mph /  11.3km/h 21.0mph /  33.8km/h 20% 0.00in /  0mm 631.0 W/m2 BKN
13:15 64.4 °F /  18 °C 23.6 °F /  -4.7 °C 29.89in /  1012.1hPa SSW 7.0mph /  11.3km/h 21.0mph /  33.8km/h 21% 0.00in /  0mm 626.0 W/m2 BKN
13:20 64.2 °F /  17.9 °C 22.2 °F /  -5.4 °C 29.89in /  1012.1hPa SW 9.0mph /  14.5km/h 16.0mph /  25.7km/h 20% 0.00in /  0mm 621.0 W/m2 BKN
13:25 64.6 °F /  18.1 °C 23.7 °F /  -4.6 °C 29.88in /  1011.7hPa WSW 5.0mph /  8km/h 12.0mph /  19.3km/h 21% 0.00in /  0mm 613.0 W/m2 BKN
13:34 64.5 °F /  18.1 °C 22.5 °F /  -5.3 °C 29.87in /  1011.4hPa WSW 6.0mph /  9.7km/h 24.0mph /  38.6km/h 20% 0.00in /  0mm 408.0 W/m2 BKN
13:40 63.5 °F /  17.5 °C 21.6 °F /  -5.8 °C 29.87in /  1011.4hPa WSW 5.0mph /  8km/h 13.0mph /  20.9km/h 20% 0.00in /  0mm 144.0 W/m2 BKN
13:45 62.7 °F /  17.1 °C 22.2 °F /  -5.4 °C 29.87in /  1011.4hPa WSW 3.0mph /  4.8km/h 13.0mph /  20.9km/h 21% 0.00in /  0mm 380.0 W/m2 BKN
13:50 64.1 °F /  17.8 °C 23.3 °F /  -4.8 °C 29.87in /  1011.4hPa WSW 8.0mph /  12.9km/h 13.0mph /  20.9km/h 21% 0.00in /  0mm 545.0 W/m2 BKN
14:10 64.3 °F /  17.9 °C 21.1 °F /  -6.1 °C 29.86in /  1011.1hPa West 2.0mph /  3.2km/h 17.0mph /  27.4km/h 19% 0.00in /  0mm 427.0 W/m2 BKN
14:15 64.3 °F /  17.9 °C 21.1 °F /  -6.1 °C 29.86in /  1011.1hPa West 6.0mph /  9.7km/h 13.0mph /  20.9km/h 19% 0.00in /  0mm 155.0 W/m2 BKN
14:20 64.2 °F /  17.9 °C 21.0 °F /  -6.1 °C 29.85in /  1010.7hPa West 5.0mph /  8km/h 12.0mph /  19.3km/h 19% 0.00in /  0mm 193.0 W/m2 BKN
14:25 64.6 °F /  18.1 °C 20.1 °F /  -6.6 °C 29.86in /  1011.1hPa West 6.0mph /  9.7km/h 10.0mph /  16.1km/h 18% 0.00in /  0mm 86.0 W/m2 BKN
14:30 64.3 °F /  17.9 °C 19.8 °F /  -6.8 °C 29.85in /  1010.7hPa West 5.0mph /  8km/h 12.0mph /  19.3km/h 18% 0.00in /  0mm 62.0 W/m2 BKN
14:35 64.3 °F /  17.9 °C 19.8 °F /  -6.8 °C 29.85in /  1010.7hPa West 6.0mph /  9.7km/h 10.0mph /  16.1km/h 18% 0.00in /  0mm 299.0 W/m2 BKN
14:40 64.1 °F /  17.8 °C 19.7 °F /  -6.8 °C 29.85in /  1010.7hPa WSW 5.0mph /  8km/h 13.0mph /  20.9km/h 18% 0.00in /  0mm 188.0 W/m2 BKN
14:45 64.1 °F /  17.8 °C 18.3 °F /  -7.6 °C 29.85in /  1010.7hPa WSW 6.0mph /  9.7km/h 12.0mph /  19.3km/h 17% 0.00in /  0mm 83.0 W/m2 BKN
14:50 64.0 °F /  17.8 °C 18.3 °F /  -7.6 °C 29.85in /  1010.7hPa West 3.0mph /  4.8km/h 12.0mph /  19.3km/h 17% 0.00in /  0mm 141.0 W/m2 BKN
14:54 64.3 °F /  17.9 °C 18.5 °F /  -7.5 °C 29.85in /  1010.7hPa WNW 6.0mph /  9.7km/h 13.0mph /  20.9km/h 17% 0.00in /  0mm 232.0 W/m2 BKN
15:00 64.0 °F /  17.8 °C 18.3 °F /  -7.6 °C 29.85in /  1010.7hPa WSW 5.0mph /  8km/h 16.0mph /  25.7km/h 17% 0.00in /  0mm 37.0 W/m2 BKN
15:10 63.7 °F /  17.6 °C 18.0 °F /  -7.8 °C 29.85in /  1010.7hPa West 3.0mph /  4.8km/h 15.0mph /  24.1km/h 17% 0.00in /  0mm 376.0 W/m2 BKN
15:15 64.1 °F /  17.8 °C 19.6 °F /  -6.9 °C 29.84in /  1010.4hPa WSW 3.0mph /  4.8km/h 13.0mph /  20.9km/h 18% 0.00in /  0mm 388.0 W/m2 BKN
15:20 64.1 °F /  17.8 °C 19.7 °F /  -6.8 °C 29.85in /  1010.7hPa West 3.0mph /  4.8km/h 12.0mph /  19.3km/h 18% 0.00in /  0mm 51.0 W/m2 BKN
15:25 63.6 °F /  17.6 °C 20.6 °F /  -6.3 °C 29.85in /  1010.7hPa NW 3.0mph /  4.8km/h 12.0mph /  19.3km/h 19% 0.00in /  0mm 214.0 W/m2 BKN
15:30 62.9 °F /  17.2 °C 21.2 °F /  -6 °C 29.84in /  1010.4hPa NNW 5.0mph /  8km/h 10.0mph /  16.1km/h 20% 0.00in /  0mm 274.0 W/m2 BKN
15:35 62.6 °F /  17 °C 23.2 °F /  -4.9 °C 29.84in /  1010.4hPa NNW 3.0mph /  4.8km/h 8.0mph /  12.9km/h 22% 0.00in /  0mm 225.0 W/m2 BKN
15:40 61.8 °F /  16.6 °C 23.6 °F /  -4.7 °C 29.84in /  1010.4hPa North 5.0mph /  8km/h 9.0mph /  14.5km/h 23% 0.00in /  0mm 190.0 W/m2 BKN
15:45 61.4 °F /  16.3 °C 24.2 °F /  -4.3 °C 29.84in /  1010.4hPa North 2.0mph /  3.2km/h 7.0mph /  11.3km/h 24% 0.00in /  0mm 232.0 W/m2 BKN
15:50 61.9 °F /  16.6 °C 19.2 °F /  -7.1 °C 29.84in /  1010.4hPa NW 3.0mph /  4.8km/h 9.0mph /  14.5km/h 19% 0.00in /  0mm 186.0 W/m2 BKN
15:54 61.7 °F /  16.5 °C 22.4 °F /  -5.3 °C 29.84in /  1010.4hPa WNW 3.0mph /  4.8km/h 10.0mph /  16.1km/h 22% 0.00in /  0mm 149.0 W/m2 BKN
15:59 61.2 °F /  16.2 °C 23.1 °F /  -4.9 °C 29.84in /  1010.4hPa NW 3.0mph /  4.8km/h 12.0mph /  19.3km/h 23% 0.00in /  0mm 213.0 W/m2 BKN
16:10 61.8 °F /  16.6 °C 20.2 °F /  -6.6 °C 29.84in /  1010.4hPa WNW 3.0mph /  4.8km/h 12.0mph /  19.3km/h 20% 0.00in /  0mm 155.0 W/m2 BKN
16:15 61.4 °F /  16.3 °C 21.1 °F /  -6.1 °C 29.84in /  1010.4hPa West 3.0mph /  4.8km/h 12.0mph /  19.3km/h 21% 0.00in /  0mm 118.0 W/m2 BKN
16:20 61.0 °F /  16.1 °C 19.6 °F /  -6.9 °C 29.84in /  1010.4hPa West 3.0mph /  4.8km/h 8.0mph /  12.9km/h 20% 0.00in /  0mm 134.0 W/m2 BKN
16:25 60.9 °F /  16.1 °C 20.6 °F /  -6.3 °C 29.83in /  1010hPa WNW 3.0mph /  4.8km/h 9.0mph /  14.5km/h 21% 0.00in /  0mm 113.0 W/m2 BKN
16:30 60.5 °F /  15.8 °C 21.4 °F /  -5.9 °C 29.83in /  1010hPa WNW 1.0mph /  1.6km/h 5.0mph /  8km/h 22% 0.00in /  0mm 113.0 W/m2 BKN
16:35 60.5 °F /  15.8 °C 20.3 °F /  -6.5 °C 29.84in /  1010.4hPa West 1.0mph /  1.6km/h 7.0mph /  11.3km/h 21% 0.00in /  0mm 109.0 W/m2 BKN
16:40 60.4 °F /  15.8 °C 19.1 °F /  -7.2 °C 29.83in /  1010hPa NW 2.0mph /  3.2km/h 4.0mph /  6.4km/h 20% 0.00in /  0mm 95.0 W/m2 BKN
16:45 60.2 °F /  15.7 °C 18.9 °F /  -7.3 °C 29.83in /  1010hPa West 2.0mph /  3.2km/h 12.0mph /  19.3km/h 20% 0.00in /  0mm 58.0 W/m2 BKN
16:50 59.8 °F /  15.4 °C 18.6 °F /  -7.4 °C 29.83in /  1010hPa WSW 2.0mph /  3.2km/h 9.0mph /  14.5km/h 20% 0.00in /  0mm 58.0 W/m2 BKN
17:00 58.6 °F /  14.8 °C 17.6 °F /  -8 °C 29.84in /  1010.4hPa WSW 2.0mph /  3.2km/h 14.0mph /  22.5km/h 20% 0.00in /  0mm 25.0 W/m2 BKN
17:10 57.5 °F /  14.2 °C 17.8 °F /  -7.9 °C 29.84in /  1010.4hPa SW 1.0mph /  1.6km/h 12.0mph /  19.3km/h 21% 0.00in /  0mm 21.0 W/m2 BKN
17:15 57.1 °F /  13.9 °C 17.5 °F /  -8.1 °C 29.84in /  1010.4hPa SW 2.0mph /  3.2km/h 12.0mph /  19.3km/h 21% 0.00in /  0mm 19.0 W/m2 BKN
17:20 56.9 °F /  13.8 °C 18.4 °F /  -7.6 °C 29.84in /  1010.4hPa SW 3.0mph /  4.8km/h 9.0mph /  14.5km/h 22% 0.00in /  0mm 14.0 W/m2 BKN
17:25 56.6 °F /  13.7 °C 18.1 °F /  -7.7 °C 29.85in /  1010.7hPa SW 3.0mph /  4.8km/h 12.0mph /  19.3km/h 22% 0.00in /  0mm 9.0 W/m2 BKN
17:30 56.2 °F /  13.4 °C 18.8 °F /  -7.3 °C 29.84in /  1010.4hPa SW 2.0mph /  3.2km/h 6.0mph /  9.7km/h 23% 0.00in /  0mm 5.0 W/m2 BKN
17:35 56.2 °F /  13.4 °C 17.8 °F /  -7.9 °C 29.84in /  1010.4hPa WSW 2.0mph /  3.2km/h 12.0mph /  19.3km/h 22% 0.00in /  0mm 0.0 W/m2 BKN
17:40 56.1 °F /  13.4 °C 17.8 °F /  -7.9 °C 29.84in /  1010.4hPa SW 2.0mph /  3.2km/h 8.0mph /  12.9km/h 22% 0.00in /  0mm 0.0 W/m2 BKN
17:49 55.0 °F /  12.8 °C 18.8 °F /  -7.3 °C 29.84in /  1010.4hPa Calm   4.0mph /  6.4km/h 24% 0.00in /  0mm 0.0 W/m2 BKN
17:54 54.2 °F /  12.3 °C 18.1 °F /  -7.7 °C 29.84in /  1010.4hPa North 1.0mph /  1.6km/h 3.0mph /  4.8km/h 24% 0.00in /  0mm 0.0 W/m2 BKN
17:59 53.0 °F /  11.7 °C 19.0 °F /  -7.2 °C 29.84in /  1010.4hPa Calm   3.0mph /  4.8km/h 26% 0.00in /  0mm 0.0 W/m2 BKN
18:09 51.4 °F /  10.8 °C 20.2 °F /  -6.6 °C 29.83in /  1010hPa NNW 1.0mph /  1.6km/h 3.0mph /  4.8km/h 29% 0.00in /  0mm 0.0 W/m2 BKN
18:15 51.3 °F /  10.7 °C 20.9 °F /  -6.2 °C 29.84in /  1010.4hPa NNW 2.0mph /  3.2km/h 6.0mph /  9.7km/h 30% 0.00in /  0mm 0.0 W/m2 BKN
18:20 51.5 °F /  10.8 °C 20.2 °F /  -6.6 °C 29.84in /  1010.4hPa Calm   6.0mph /  9.7km/h 29% 0.00in /  0mm 0.0 W/m2 BKN
18:25 51.2 °F /  10.7 °C 20.0 °F /  -6.7 °C 29.84in /  1010.4hPa Calm   1.0mph /  1.6km/h 29% 0.00in /  0mm 0.0 W/m2 BKN
18:30 50.5 °F /  10.3 °C 20.2 °F /  -6.6 °C 29.84in /  1010.4hPa Calm     30% 0.00in /  0mm 0.0 W/m2 BKN
18:35 49.9 °F /  9.9 °C 20.4 °F /  -6.4 °C 29.84in /  1010.4hPa Calm   1.0mph /  1.6km/h 31% 0.00in /  0mm 0.0 W/m2 BKN
18:39 49.6 °F /  9.8 °C 20.2 °F /  -6.6 °C 29.84in /  1010.4hPa NW 1.0mph /  1.6km/h 2.0mph /  3.2km/h 31% 0.00in /  0mm 0.0 W/m2 BKN
18:45 49.5 °F /  9.7 °C 20.9 °F /  -6.2 °C 29.84in /  1010.4hPa NW 1.0mph /  1.6km/h 3.0mph /  4.8km/h 32% 0.00in /  0mm 0.0 W/m2 BKN
18:50 49.4 °F /  9.7 °C 20.7 °F /  -6.3 °C 29.84in /  1010.4hPa NNW 1.0mph /  1.6km/h 3.0mph /  4.8km/h 32% 0.00in /  0mm 0.0 W/m2 BKN
18:55 49.7 °F /  9.8 °C 20.2 °F /  -6.6 °C 29.84in /  1010.4hPa Calm   4.0mph /  6.4km/h 31% 0.00in /  0mm 0.0 W/m2 BKN
18:59 49.4 °F /  9.7 °C 20.7 °F /  -6.3 °C 29.84in /  1010.4hPa Calm   2.0mph /  3.2km/h 32% 0.00in /  0mm 0.0 W/m2 BKN
19:10 48.4 °F /  9.1 °C 20.5 °F /  -6.4 °C 29.84in /  1010.4hPa Calm   2.0mph /  3.2km/h 33% 0.00in /  0mm 0.0 W/m2 BKN
19:15 48.3 °F /  9.1 °C 20.5 °F /  -6.4 °C 29.84in /  1010.4hPa Calm   1.0mph /  1.6km/h 33% 0.00in /  0mm 0.0 W/m2 BKN
19:19 47.9 °F /  8.8 °C 21.5 °F /  -5.8 °C 29.84in /  1010.4hPa NW 1.0mph /  1.6km/h 3.0mph /  4.8km/h 35% 0.00in /  0mm 0.0 W/m2 BKN
19:24 48.1 °F /  8.9 °C 21.0 °F /  -6.1 °C 29.84in /  1010.4hPa Calm   3.0mph /  4.8km/h 34% 0.00in /  0mm 0.0 W/m2 BKN
19:29 48.0 °F /  8.9 °C 20.9 °F /  -6.2 °C 29.84in /  1010.4hPa Calm   2.0mph /  3.2km/h 34% 0.00in /  0mm 0.0 W/m2 BKN
19:34 47.1 °F /  8.4 °C 21.4 °F /  -5.9 °C 29.84in /  1010.4hPa Calm   1.0mph /  1.6km/h 36% 0.00in /  0mm 0.0 W/m2 BKN
19:40 46.1 °F /  7.8 °C 20.6 °F /  -6.3 °C 29.84in /  1010.4hPa Calm   1.0mph /  1.6km/h 36% 0.00in /  0mm 0.0 W/m2 BKN
19:45 45.8 °F /  7.7 °C 21.6 °F /  -5.8 °C 29.84in /  1010.4hPa Calm     38% 0.00in /  0mm 0.0 W/m2 BKN
19:50 45.4 °F /  7.4 °C 21.2 °F /  -6 °C 29.84in /  1010.4hPa Calm     38% 0.00in /  0mm 0.0 W/m2 BKN
19:55 45.2 °F /  7.3 °C 21.1 °F /  -6.1 °C 29.85in /  1010.7hPa Calm     38% 0.00in /  0mm 0.0 W/m2 BKN
20:00 45.2 °F /  7.3 °C 21.1 °F /  -6.1 °C 29.85in /  1010.7hPa Calm     38% 0.00in /  0mm 0.0 W/m2 BKN
20:10 45.0 °F /  7.2 °C 21.5 °F /  -5.8 °C 29.85in /  1010.7hPa Calm     39% 0.00in /  0mm 0.0 W/m2 BKN
20:15 44.8 °F /  7.1 °C 21.3 °F /  -5.9 °C 29.85in /  1010.7hPa Calm     39% 0.00in /  0mm 0.0 W/m2 BKN
20:20 44.7 °F /  7.1 °C 21.2 °F /  -6 °C 29.85in /  1010.7hPa Calm     39% 0.00in /  0mm 0.0 W/m2 BKN
20:25 44.3 °F /  6.8 °C 20.9 °F /  -6.2 °C 29.85in /  1010.7hPa Calm     39% 0.00in /  0mm 0.0 W/m2 BKN
20:30 43.6 °F /  6.4 °C 20.8 °F /  -6.2 °C 29.85in /  1010.7hPa Calm     40% 0.00in /  0mm 0.0 W/m2 BKN
20:35 43.3 °F /  6.3 °C 21.1 °F /  -6.1 °C 29.85in /  1010.7hPa Calm     41% 0.00in /  0mm 0.0 W/m2 BKN
20:40 43.1 °F /  6.2 °C 21.0 °F /  -6.1 °C 29.85in /  1010.7hPa Calm     41% 0.00in /  0mm 0.0 W/m2 BKN
20:45 43.0 °F /  6.1 °C 20.9 °F /  -6.2 °C 29.86in /  1011.1hPa Calm     41% 0.00in /  0mm 0.0 W/m2 BKN
20:50 42.9 °F /  6.1 °C 21.3 °F /  -5.9 °C 29.86in /  1011.1hPa Calm   1.0mph /  1.6km/h 42% 0.00in /  0mm 0.0 W/m2 BKN
20:55 42.5 °F /  5.8 °C 21.5 °F /  -5.8 °C 29.86in /  1011.1hPa Calm   2.0mph /  3.2km/h 43% 0.00in /  0mm 0.0 W/m2 BKN
21:00 42.4 °F /  5.8 °C 21.4 °F /  -5.9 °C 29.86in /  1011.1hPa Calm   1.0mph /  1.6km/h 43% 0.00in /  0mm 0.0 W/m2 BKN
21:10 41.3 °F /  5.2 °C 21.5 °F /  -5.8 °C 29.85in /  1010.7hPa NW 1.0mph /  1.6km/h 2.0mph /  3.2km/h 45% 0.00in /  0mm 0.0 W/m2 BKN
21:15 42.3 °F /  5.7 °C 21.9 °F /  -5.6 °C 29.85in /  1010.7hPa Calm   1.0mph /  1.6km/h 44% 0.00in /  0mm 0.0 W/m2 FEW
21:20 42.0 °F /  5.6 °C 22.2 °F /  -5.4 °C 29.85in /  1010.7hPa Calm   1.0mph /  1.6km/h 45% 0.00in /  0mm 0.0 W/m2 FEW
21:25 41.8 °F /  5.4 °C 22.0 °F /  -5.6 °C 29.86in /  1011.1hPa Calm     45% 0.00in /  0mm 0.0 W/m2 FEW
21:30 41.4 °F /  5.2 °C 22.2 °F /  -5.4 °C 29.85in /  1010.7hPa Calm   1.0mph /  1.6km/h 46% 0.00in /  0mm 0.0 W/m2 FEW
21:35 41.6 °F /  5.3 °C 22.3 °F /  -5.4 °C 29.86in /  1011.1hPa Calm     46% 0.00in /  0mm 0.0 W/m2 FEW
21:40 41.3 °F /  5.2 °C 22.6 °F /  -5.2 °C 29.86in /  1011.1hPa Calm   1.0mph /  1.6km/h 47% 0.00in /  0mm 0.0 W/m2 FEW
21:45 40.9 °F /  4.9 °C 22.2 °F /  -5.4 °C 29.86in /  1011.1hPa Calm   1.0mph /  1.6km/h 47% 0.00in /  0mm 0.0 W/m2 FEW
21:50 40.9 °F /  4.9 °C 22.7 °F /  -5.2 °C 29.85in /  1010.7hPa Calm   1.0mph /  1.6km/h 48% 0.00in /  0mm 0.0 W/m2 FEW
21:55 40.5 °F /  4.7 °C 22.3 °F /  -5.4 °C 29.86in /  1011.1hPa Calm     48% 0.00in /  0mm 0.0 W/m2 BKN
21:59 40.0 °F /  4.4 °C 22.4 °F /  -5.3 °C 29.85in /  1010.7hPa Calm   1.0mph /  1.6km/h 49% 0.00in /  0mm 0.0 W/m2 BKN
22:10 39.1 °F /  3.9 °C 22.4 °F /  -5.3 °C 29.85in /  1010.7hPa Calm   1.0mph /  1.6km/h 51% 0.00in /  0mm 0.0 W/m2 BKN
22:15 39.0 °F /  3.9 °C 22.8 °F /  -5.1 °C 29.85in /  1010.7hPa Calm   1.0mph /  1.6km/h 52% 0.00in /  0mm 0.0 W/m2 BKN
22:20 38.7 °F /  3.7 °C 23.0 °F /  -5 °C 29.85in /  1010.7hPa NW 1.0mph /  1.6km/h 1.0mph /  1.6km/h 53% 0.00in /  0mm 0.0 W/m2 BKN
22:24 38.4 °F /  3.6 °C 22.7 °F /  -5.2 °C 29.85in /  1010.7hPa Calm   1.0mph /  1.6km/h 53% 0.00in /  0mm 0.0 W/m2 CLR
22:30 38.4 °F /  3.6 °C 22.7 °F /  -5.2 °C 29.84in /  1010.4hPa Calm     53% 0.00in /  0mm 0.0 W/m2 CLR
22:35 38.6 °F /  3.7 °C 22.9 °F /  -5.1 °C 29.84in /  1010.4hPa Calm   1.0mph /  1.6km/h 53% 0.00in /  0mm 0.0 W/m2 CLR
22:40 38.5 °F /  3.6 °C 22.8 °F /  -5.1 °C 29.84in /  1010.4hPa Calm     53% 0.00in /  0mm 0.0 W/m2 CLR
22:45 38.2 °F /  3.4 °C 23.0 °F /  -5 °C 29.85in /  1010.7hPa Calm   1.0mph /  1.6km/h 54% 0.00in /  0mm 0.0 W/m2 CLR
22:50 38.6 °F /  3.7 °C 23.8 °F /  -4.6 °C 29.84in /  1010.4hPa Calm     55% 0.00in /  0mm 0.0 W/m2 CLR
22:55 39.2 °F /  4 °C 24.3 °F /  -4.3 °C 29.85in /  1010.7hPa WNW 1.0mph /  1.6km/h 2.0mph /  3.2km/h 55% 0.00in /  0mm 0.0 W/m2 CLR
23:00 42.0 °F /  5.6 °C 25.1 °F /  -3.8 °C 29.85in /  1010.7hPa Calm   2.0mph /  3.2km/h 51% 0.00in /  0mm 0.0 W/m2 CLR
23:09 44.5 °F /  6.9 °C 25.0 °F /  -3.9 °C 29.85in /  1010.7hPa WSW 1.0mph /  1.6km/h 4.0mph /  6.4km/h 46% 0.00in /  0mm 0.0 W/m2 SCT
23:14 45.3 °F /  7.4 °C 25.2 °F /  -3.8 °C 29.85in /  1010.7hPa Calm   5.0mph /  8km/h 45% 0.00in /  0mm 0.0 W/m2 SCT
23:20 45.2 °F /  7.3 °C 25.1 °F /  -3.8 °C 29.85in /  1010.7hPa SW 1.0mph /  1.6km/h 6.0mph /  9.7km/h 45% 0.00in /  0mm 0.0 W/m2 SCT
23:25 45.1 °F /  7.3 °C 25.0 °F /  -3.9 °C 29.84in /  1010.4hPa SSW 1.0mph /  1.6km/h 4.0mph /  6.4km/h 45% 0.00in /  0mm 0.0 W/m2 SCT
23:30 45.1 °F /  7.3 °C 25.0 °F /  -3.9 °C 29.84in /  1010.4hPa SSW 1.0mph /  1.6km/h 4.0mph /  6.4km/h 45% 0.00in /  0mm 0.0 W/m2 SCT
23:35 45.2 °F /  7.3 °C 24.6 °F /  -4.1 °C 29.83in /  1010hPa SSW 1.0mph /  1.6km/h 4.0mph /  6.4km/h 44% 0.00in /  0mm 0.0 W/m2 SCT
23:45 45.7 °F /  7.6 °C 24.5 °F /  -4.2 °C 29.83in /  1010hPa SW 1.0mph /  1.6km/h 4.0mph /  6.4km/h 43% 0.00in /  0mm 0.0 W/m2 SCT
23:50 45.4 °F /  7.4 °C 24.8 °F /  -4 °C 29.84in /  1010.4hPa Calm   2.0mph /  3.2km/h 44% 0.00in /  0mm 0.0 W/m2 SCT
23:55 45.1 °F /  7.3 °C 24.5 °F /  -4.2 °C 29.84in /  1010.4hPa WSW 1.0mph /  1.6km/h 4.0mph /  6.4km/h 44% 0.00in /  0mm 0.0 W/m2 SCT
23:59 45.0 °F /  7.2 °C 24.4 °F /  -4.2 °C 29.84in /  1010.4hPa SW 2.0mph /  3.2km/h 6.0mph /  9.7km/h 44% 0.00in /  0mm 0.0 W/m2 SCT
Broomfield, Colorado USA
Compliments of Weather Underground - 4 mb